Time;durP1;ratioP1;P1;durP2;ratioP2;P2;SDS_P1;SDS_P2;PMS_P1;PMS_P2;Temp;Humidity;BMP_temperature;BMP_pressure;BME280_temperature;BME280_humidity;BME280_pressure;Samples;Min_cycle;Max_cycle;Signal;HPM_P1;HPM_P2
2024/01/14 00:00:12;;;;;;;12.50;5.80;;;;;;;;;;6214928;28;20049;-84
2024/01/14 00:03:14;;;;;;;12.93;5.53;;;;;;;;;;6236334;28;20500;-84
2024/01/14 00:06:16;;;;;;;12.95;5.85;;;;;;;;;;6243935;28;20045;-85
2024/01/14 00:09:20;;;;;;;13.13;5.30;;;;;;;;;;6231307;28;20393;-85
2024/01/14 00:12:22;;;;;;;12.27;5.63;;;;;;;;;;6237017;28;20100;-84
2024/01/14 00:15:24;;;;;;;12.75;5.45;;;;;;;;;;6247533;28;20052;-85
2024/01/14 00:18:26;;;;;;;14.10;5.55;;;;;;;;;;6248490;28;20090;-84
2024/01/14 00:21:28;;;;;;;13.20;5.40;;;;;;;;;;6246987;28;20060;-84
2024/01/14 00:24:30;;;;;;;14.48;6.05;;;;;;;;;;6228301;28;20540;-84
2024/01/14 00:27:32;;;;;;;13.48;5.78;;;;;;;;;;6247606;28;20044;-85
2024/01/14 00:30:34;;;;;;;12.88;5.60;;;;;;;;;;6249103;28;20041;-84
2024/01/14 00:33:40;;;;;;;12.02;5.65;;;;;;;;;;6245542;28;20132;-84
2024/01/14 00:36:42;;;;;;;15.43;6.45;;;;;;;;;;6250202;28;20049;-85
2024/01/14 00:39:44;;;;;;;14.68;5.82;;;;;;;;;;6222523;28;20052;-84
2024/01/14 00:42:46;;;;;;;13.23;6.32;;;;;;;;;;6241675;28;20049;-84
2024/01/14 00:45:48;;;;;;;11.73;5.72;;;;;;;;;;6246420;28;20137;-84
2024/01/14 00:48:50;;;;;;;9.90;4.80;;;;;;;;;;6239103;28;20149;-84
2024/01/14 00:51:52;;;;;;;11.93;5.03;;;;;;;;;;6227110;28;20093;-84
2024/01/14 00:54:54;;;;;;;13.10;5.25;;;;;;;;;;6246224;28;20045;-86
2024/01/14 00:57:56;;;;;;;11.82;5.20;;;;;;;;;;6244368;28;20077;-87
2024/01/14 01:00:57;;;;;;;10.93;4.82;;;;;;;;;;6228634;28;20045;-86
2024/01/14 01:04:00;;;;;;;10.10;4.15;;;;;;;;;;6233217;28;20041;-87
2024/01/14 01:07:02;;;;;;;11.88;5.20;;;;;;;;;;6243133;28;20047;-86
2024/01/14 01:10:05;;;;;;;11.90;4.85;;;;;;;;;;6227194;28;20048;-86
2024/01/14 01:13:08;;;;;;;9.65;4.70;;;;;;;;;;6238807;28;20422;-88
2024/01/14 01:16:10;;;;;;;11.57;4.97;;;;;;;;;;6247195;28;20044;-86
2024/01/14 01:19:12;;;;;;;12.95;5.32;;;;;;;;;;6236149;28;20053;-87
2024/01/14 01:22:16;;;;;;;11.50;5.10;;;;;;;;;;6227544;28;20041;-85
2024/01/14 01:25:18;;;;;;;10.57;4.55;;;;;;;;;;6232617;28;20093;-86
2024/01/14 01:28:20;;;;;;;11.10;4.78;;;;;;;;;;6235294;28;20710;-86
2024/01/14 01:31:22;;;;;;;10.32;4.90;;;;;;;;;;6248396;28;20538;-85
2024/01/14 01:34:38;;;;;;;9.90;4.97;;;;;;;;;;6227417;28;20491;-86
2024/01/14 01:37:41;;;;;;;9.87;4.70;;;;;;;;;;6243835;28;20041;-86
2024/01/14 01:40:47;;;;;;;9.73;5.00;;;;;;;;;;6234390;28;20522;-87
2024/01/14 01:43:49;;;;;;;11.45;5.45;;;;;;;;;;6251627;28;20041;-86
2024/01/14 01:46:52;;;;;;;10.23;4.68;;;;;;;;;;6248010;28;20520;-85
2024/01/14 01:49:54;;;;;;;11.77;5.20;;;;;;;;;;6266324;28;20054;-88
2024/01/14 01:52:56;;;;;;;11.93;5.10;;;;;;;;;;6260341;28;20045;-90
2024/01/14 01:55:59;;;;;;;11.38;4.88;;;;;;;;;;6271531;28;20041;-86
2024/01/14 01:59:01;;;;;;;13.02;5.13;;;;;;;;;;6252926;28;20045;-86
2024/01/14 02:02:04;;;;;;;10.73;4.72;;;;;;;;;;6232941;28;20155;-86
2024/01/14 02:05:07;;;;;;;12.40;5.18;;;;;;;;;;6246081;28;20045;-87
2024/01/14 02:08:09;;;;;;;10.02;4.32;;;;;;;;;;6245629;28;20056;-86
2024/01/14 02:11:11;;;;;;;12.57;5.32;;;;;;;;;;6237157;28;20563;-86
2024/01/14 02:14:13;;;;;;;9.70;4.32;;;;;;;;;;6228815;28;20055;-86
2024/01/14 02:17:15;;;;;;;11.77;4.68;;;;;;;;;;6241637;28;20739;-87
2024/01/14 02:20:17;;;;;;;8.55;4.18;;;;;;;;;;6239980;28;20052;-86
2024/01/14 02:23:25;;;;;;;10.82;4.72;;;;;;;;;;6256536;28;20038;-87
2024/01/14 02:26:27;;;;;;;11.07;4.15;;;;;;;;;;6221149;28;20514;-86
2024/01/14 02:29:30;;;;;;;9.55;4.38;;;;;;;;;;6247323;28;20037;-86
2024/01/14 02:32:37;;;;;;;10.80;4.00;;;;;;;;;;6229860;28;20084;-86
2024/01/14 02:35:42;;;;;;;11.48;4.45;;;;;;;;;;6243317;28;20061;-86
2024/01/14 02:38:44;;;;;;;8.88;4.28;;;;;;;;;;6238955;28;20041;-85
2024/01/14 02:41:46;;;;;;;10.20;4.68;;;;;;;;;;6247446;28;20044;-86
2024/01/14 02:44:48;;;;;;;14.18;5.20;;;;;;;;;;6243326;28;20056;-85
2024/01/14 02:47:51;;;;;;;10.18;4.47;;;;;;;;;;6260770;28;20149;-87
2024/01/14 02:50:52;;;;;;;12.80;5.50;;;;;;;;;;6244979;28;20114;-86
2024/01/14 02:53:54;;;;;;;11.60;5.55;;;;;;;;;;6234521;28;20048;-86
2024/01/14 02:56:56;;;;;;;11.10;4.57;;;;;;;;;;6237695;28;20040;-86
2024/01/14 03:00:01;;;;;;;12.18;4.90;;;;;;;;;;6221486;28;20124;-86
2024/01/14 03:03:03;;;;;;;14.07;4.68;;;;;;;;;;6244022;28;20671;-86
2024/01/14 03:06:05;;;;;;;12.20;4.63;;;;;;;;;;6252089;28;20048;-85
2024/01/14 03:09:09;;;;;;;13.73;6.37;;;;;;;;;;6239775;28;20534;-86
2024/01/14 03:12:11;;;;;;;13.65;5.40;;;;;;;;;;6234566;28;20071;-87
2024/01/14 03:15:13;;;;;;;13.80;5.53;;;;;;;;;;6225878;28;20219;-86
2024/01/14 03:18:17;;;;;;;11.55;5.63;;;;;;;;;;6232330;28;20130;-85
2024/01/14 03:21:20;;;;;;;14.40;5.97;;;;;;;;;;6224293;28;20041;-86
2024/01/14 03:24:22;;;;;;;12.30;5.53;;;;;;;;;;6227407;28;20064;-86
2024/01/14 03:27:24;;;;;;;11.55;5.05;;;;;;;;;;6236147;28;20056;-86
2024/01/14 03:30:29;;;;;;;12.82;5.32;;;;;;;;;;6225905;28;20044;-86
2024/01/14 03:33:31;;;;;;;15.23;5.68;;;;;;;;;;6250965;28;20044;-86
2024/01/14 03:36:33;;;;;;;11.27;5.28;;;;;;;;;;6238238;28;20067;-86
2024/01/14 03:39:35;;;;;;;12.88;5.38;;;;;;;;;;6251587;28;20049;-87
2024/01/14 03:42:37;;;;;;;11.98;5.07;;;;;;;;;;6229191;28;20075;-87
2024/01/14 03:45:39;;;;;;;13.02;5.57;;;;;;;;;;6243801;28;20041;-86
2024/01/14 03:48:41;;;;;;;13.65;5.18;;;;;;;;;;6248649;28;20052;-85
2024/01/14 03:51:44;;;;;;;14.13;5.40;;;;;;;;;;6231550;28;20045;-85
2024/01/14 03:54:45;;;;;;;16.08;5.82;;;;;;;;;;6228518;28;20052;-85
2024/01/14 03:57:47;;;;;;;12.55;5.22;;;;;;;;;;6233647;28;20491;-85
2024/01/14 04:00:49;;;;;;;15.35;6.28;;;;;;;;;;6226800;28;20041;-85
2024/01/14 04:03:51;;;;;;;16.38;6.50;;;;;;;;;;6235407;28;20076;-85
2024/01/14 04:06:54;;;;;;;12.00;5.75;;;;;;;;;;6233849;28;20046;-84
2024/01/14 04:09:56;;;;;;;16.35;6.22;;;;;;;;;;6232560;28;20052;-85
2024/01/14 04:12:59;;;;;;;13.98;5.93;;;;;;;;;;6227691;28;20781;-84
2024/01/14 04:16:01;;;;;;;18.10;6.50;;;;;;;;;;6236489;28;20518;-85
2024/01/14 04:19:06;;;;;;;16.13;6.03;;;;;;;;;;6246435;28;20072;-85
2024/01/14 04:22:08;;;;;;;14.32;5.68;;;;;;;;;;6229054;28;20523;-85
2024/01/14 04:25:10;;;;;;;19.52;7.18;;;;;;;;;;6245397;28;20057;-85
2024/01/14 04:28:12;;;;;;;18.05;6.85;;;;;;;;;;6245738;28;20040;-86
2024/01/14 04:31:14;;;;;;;18.27;6.68;;;;;;;;;;6247061;28;20040;-85
2024/01/14 04:34:16;;;;;;;19.83;7.45;;;;;;;;;;6239556;28;20045;-85
2024/01/14 04:37:18;;;;;;;18.92;7.22;;;;;;;;;;6269990;28;20036;-85
2024/01/14 04:40:20;;;;;;;18.80;6.22;;;;;;;;;;6251993;28;20041;-84
2024/01/14 04:43:22;;;;;;;19.77;7.13;;;;;;;;;;6245755;28;20132;-87
2024/01/14 04:46:31;;;;;;;20.80;6.70;;;;;;;;;;6250919;28;20415;-86
2024/01/14 04:49:35;;;;;;;18.40;7.15;;;;;;;;;;6250384;28;20041;-85
2024/01/14 04:52:36;;;;;;;22.13;8.18;;;;;;;;;;6243262;28;20041;-85
2024/01/14 04:55:40;;;;;;;18.27;6.95;;;;;;;;;;6226253;28;20077;-85
2024/01/14 04:58:42;;;;;;;20.55;7.55;;;;;;;;;;6246083;28;20053;-85
2024/01/14 05:01:45;;;;;;;19.30;6.73;;;;;;;;;;6241642;28;20815;-85
2024/01/14 05:04:48;;;;;;;17.25;6.47;;;;;;;;;;6242286;28;20460;-85
2024/01/14 05:07:50;;;;;;;19.33;7.75;;;;;;;;;;6235011;28;20140;-85
2024/01/14 05:10:53;;;;;;;18.85;6.85;;;;;;;;;;6256256;28;20127;-84
2024/01/14 05:13:56;;;;;;;18.10;6.22;;;;;;;;;;6245305;28;20049;-85
2024/01/14 05:16:57;;;;;;;15.45;5.93;;;;;;;;;;6226897;28;20171;-85
2024/01/14 05:19:59;;;;;;;14.80;6.35;;;;;;;;;;6259723;28;20051;-85
2024/01/14 05:23:04;;;;;;;17.75;6.22;;;;;;;;;;6240334;28;20052;-85
2024/01/14 05:26:06;;;;;;;19.42;6.40;;;;;;;;;;6248873;28;20685;-85
2024/01/14 05:29:08;;;;;;;14.45;6.40;;;;;;;;;;6240161;28;20053;-85
2024/01/14 05:32:16;;;;;;;20.25;7.20;;;;;;;;;;6239914;28;20060;-85
2024/01/14 05:35:18;;;;;;;18.00;7.15;;;;;;;;;;6238251;28;20128;-86
2024/01/14 05:38:19;;;;;;;19.63;6.35;;;;;;;;;;6225871;28;20060;-85
2024/01/14 05:41:21;;;;;;;18.90;7.13;;;;;;;;;;6226465;28;20127;-85
2024/01/14 05:44:23;;;;;;;20.20;7.70;;;;;;;;;;6231249;28;20049;-85
2024/01/14 05:47:26;;;;;;;21.10;7.07;;;;;;;;;;6243089;28;20407;-85
2024/01/14 05:50:28;;;;;;;18.77;7.70;;;;;;;;;;6240141;28;20057;-85
2024/01/14 05:53:30;;;;;;;22.38;7.95;;;;;;;;;;6236023;28;20041;-85
2024/01/14 05:56:32;;;;;;;19.52;6.97;;;;;;;;;;6227253;28;20044;-85
2024/01/14 05:59:34;;;;;;;18.00;6.90;;;;;;;;;;6235981;28;20036;-85
2024/01/14 06:02:36;;;;;;;19.20;6.60;;;;;;;;;;6231513;28;20140;-85
2024/01/14 06:05:38;;;;;;;20.25;7.03;;;;;;;;;;6235411;28;20461;-86
2024/01/14 06:08:43;;;;;;;22.58;6.88;;;;;;;;;;6229996;28;20049;-85
2024/01/14 06:11:44;;;;;;;18.30;6.38;;;;;;;;;;6239883;28;20041;-85
2024/01/14 06:14:47;;;;;;;15.43;5.95;;;;;;;;;;6231685;28;20049;-84
2024/01/14 06:17:48;;;;;;;11.70;5.03;;;;;;;;;;6247937;28;20179;-84
2024/01/14 06:20:50;;;;;;;15.40;6.22;;;;;;;;;;6230652;28;20053;-85
2024/01/14 06:23:53;;;;;;;14.15;5.55;;;;;;;;;;6221753;28;20056;-85
2024/01/14 06:26:56;;;;;;;14.32;5.60;;;;;;;;;;6248322;28;20504;-85
2024/01/14 06:30:00;;;;;;;16.20;6.05;;;;;;;;;;6261342;28;20045;-86
2024/01/14 06:33:02;;;;;;;14.32;5.82;;;;;;;;;;6236827;28;20557;-85
2024/01/14 06:36:07;;;;;;;17.48;6.03;;;;;;;;;;6246075;28;20048;-85
2024/01/14 06:39:09;;;;;;;15.75;5.88;;;;;;;;;;6241876;28;20045;-85
2024/01/14 06:42:11;;;;;;;19.48;7.45;;;;;;;;;;6237920;28;20427;-85
2024/01/14 06:45:13;;;;;;;17.13;6.75;;;;;;;;;;6237296;28;20135;-85
2024/01/14 06:48:15;;;;;;;17.07;6.70;;;;;;;;;;6245218;28;20518;-85
2024/01/14 06:51:18;;;;;;;14.88;6.22;;;;;;;;;;6251537;28;20044;-85
2024/01/14 06:54:19;;;;;;;14.77;5.88;;;;;;;;;;6242272;28;20052;-85
2024/01/14 06:57:22;;;;;;;14.60;6.65;;;;;;;;;;6245967;28;20084;-85
2024/01/14 07:00:24;;;;;;;16.17;6.90;;;;;;;;;;6218729;28;20051;-85
2024/01/14 07:03:28;;;;;;;15.80;5.78;;;;;;;;;;6215157;28;20135;-85
2024/01/14 07:06:30;;;;;;;14.77;6.25;;;;;;;;;;6229530;28;20049;-85
2024/01/14 07:09:34;;;;;;;13.75;5.88;;;;;;;;;;6241600;28;20056;-85
2024/01/14 07:12:36;;;;;;;15.10;5.93;;;;;;;;;;6224924;28;20056;-85
2024/01/14 07:15:38;;;;;;;13.77;6.15;;;;;;;;;;6238652;28;20565;-84
2024/01/14 07:18:40;;;;;;;15.80;6.15;;;;;;;;;;6242709;28;20041;-84
2024/01/14 07:21:42;;;;;;;15.98;6.13;;;;;;;;;;6244245;28;20152;-84
2024/01/14 07:24:44;;;;;;;16.77;6.63;;;;;;;;;;6274582;28;20052;-84
2024/01/14 07:27:49;;;;;;;14.38;6.18;;;;;;;;;;6249976;28;20045;-85
2024/01/14 07:30:51;;;;;;;14.55;5.78;;;;;;;;;;6234897;28;20045;-84
2024/01/14 07:33:53;;;;;;;11.63;4.95;;;;;;;;;;6250216;28;20050;-84
2024/01/14 07:36:55;;;;;;;13.87;5.80;;;;;;;;;;6247339;28;20053;-85
2024/01/14 07:39:57;;;;;;;13.85;6.13;;;;;;;;;;6235982;28;20435;-84
2024/01/14 07:42:59;;;;;;;15.27;6.30;;;;;;;;;;6251471;28;20128;-84
2024/01/14 07:46:00;;;;;;;16.73;6.70;;;;;;;;;;6239860;28;20049;-84
2024/01/14 07:49:02;;;;;;;14.98;6.40;;;;;;;;;;6249620;28;20049;-83
2024/01/14 07:52:05;;;;;;;14.48;5.80;;;;;;;;;;6236867;28;20041;-84
2024/01/14 07:55:07;;;;;;;14.93;6.50;;;;;;;;;;6245047;28;20072;-84
2024/01/14 07:58:11;;;;;;;13.65;6.00;;;;;;;;;;6238225;28;20175;-85
2024/01/14 08:01:13;;;;;;;16.35;6.35;;;;;;;;;;6227003;28;20049;-84
2024/01/14 08:04:15;;;;;;;16.60;6.25;;;;;;;;;;6245858;28;20049;-84
2024/01/14 08:07:17;;;;;;;14.85;6.50;;;;;;;;;;6233765;28;20053;-84
2024/01/14 08:10:19;;;;;;;14.02;6.00;;;;;;;;;;6247610;28;20042;-83
2024/01/14 08:13:25;;;;;;;17.05;6.97;;;;;;;;;;6241399;28;20053;-83
2024/01/14 08:16:26;;;;;;;13.02;5.88;;;;;;;;;;6239252;28;20179;-84
2024/01/14 08:19:29;;;;;;;18.00;6.38;;;;;;;;;;6249370;28;20051;-84
2024/01/14 08:22:31;;;;;;;20.05;6.72;;;;;;;;;;6235105;28;20044;-84
2024/01/14 08:25:33;;;;;;;20.13;7.28;;;;;;;;;;6236606;28;20041;-83
2024/01/14 08:28:36;;;;;;;17.55;7.40;;;;;;;;;;6239677;28;20059;-84
2024/01/14 08:31:39;;;;;;;19.67;7.22;;;;;;;;;;6251454;28;20049;-83
2024/01/14 08:34:41;;;;;;;;;;;;;;;;;;6250224;28;20083;-83
2024/01/14 08:37:43;;;;;;;12.63;5.30;;;;;;;;;;6244241;28;19925;-83
2024/01/14 08:40:51;;;;;;;15.68;5.38;;;;;;;;;;6251687;28;20046;-84
2024/01/14 08:43:53;;;;;;;14.73;6.28;;;;;;;;;;6229591;28;20055;-82
2024/01/14 08:46:55;;;;;;;12.48;5.53;;;;;;;;;;6247321;28;20075;-83
2024/01/14 08:49:56;;;;;;;16.98;5.97;;;;;;;;;;6226902;28;20046;-84
2024/01/14 08:52:59;;;;;;;18.17;5.88;;;;;;;;;;6258207;28;20041;-83
2024/01/14 08:56:03;;;;;;;15.77;6.60;;;;;;;;;;6225772;28;20049;-82
2024/01/14 08:59:05;;;;;;;15.13;5.63;;;;;;;;;;6250510;28;20423;-82
2024/01/14 09:02:07;;;;;;;15.60;5.95;;;;;;;;;;6246938;28;20055;-84
2024/01/14 09:05:12;;;;;;;13.45;5.55;;;;;;;;;;6253026;28;20041;-82
2024/01/14 09:08:14;;;;;;;17.55;5.45;;;;;;;;;;6246605;28;20135;-83
2024/01/14 09:11:16;;;;;;;13.10;6.07;;;;;;;;;;6233383;28;20435;-83
2024/01/14 09:14:18;;;;;;;14.38;5.80;;;;;;;;;;6234803;28;20491;-82
2024/01/14 09:17:19;;;;;;;19.27;7.00;;;;;;;;;;6248002;28;20056;-83
2024/01/14 09:20:22;;;;;;;13.52;6.25;;;;;;;;;;6246442;28;20115;-82
2024/01/14 09:23:23;;;;;;;15.00;6.15;;;;;;;;;;6244644;28;20142;-82
2024/01/14 09:26:25;;;;;;;15.65;6.35;;;;;;;;;;6247782;28;20050;-83
2024/01/14 09:29:27;;;;;;;17.45;6.38;;;;;;;;;;6245563;28;20068;-84
2024/01/14 09:32:29;;;;;;;16.00;6.28;;;;;;;;;;6257063;28;20058;-84
2024/01/14 09:35:31;;;;;;;17.25;6.78;;;;;;;;;;6238891;28;20049;-82
2024/01/14 09:38:33;;;;;;;15.80;6.23;;;;;;;;;;6239135;28;20162;-83
2024/01/14 09:41:43;;;;;;;15.77;5.70;;;;;;;;;;6244035;28;20182;-83
2024/01/14 09:44:47;;;;;;;17.98;6.35;;;;;;;;;;6226771;28;20048;-83
2024/01/14 09:47:49;;;;;;;17.35;7.18;;;;;;;;;;6229512;28;20046;-84
2024/01/14 09:50:52;;;;;;;17.25;6.68;;;;;;;;;;6250115;28;20056;-84
2024/01/14 09:53:56;;;;;;;16.55;6.50;;;;;;;;;;6229612;28;20048;-84
2024/01/14 09:57:05;;;;;;;15.40;6.05;;;;;;;;;;6246832;28;20055;-84
2024/01/14 10:00:08;;;;;;;20.60;7.07;;;;;;;;;;6248443;28;20136;-82
2024/01/14 10:03:10;;;;;;;;;;;;;;;;;;6247589;28;20119;-83
2024/01/14 10:06:13;;;;;;;14.93;6.38;;;;;;;;;;6245520;28;19936;-83
2024/01/14 10:09:15;;;;;;;15.90;7.13;;;;;;;;;;6251594;28;20508;-83
2024/01/14 10:12:16;;;;;;;24.80;8.48;;;;;;;;;;6255103;28;20045;-83
2024/01/14 10:15:19;;;;;;;18.52;7.07;;;;;;;;;;6253347;28;20052;-83
2024/01/14 10:18:21;;;;;;;20.67;7.85;;;;;;;;;;6279270;28;20051;-84
2024/01/14 10:21:26;;;;;;;16.50;6.93;;;;;;;;;;6256272;28;20525;-84
2024/01/14 10:24:28;;;;;;;20.17;7.30;;;;;;;;;;6241225;28;20049;-84
2024/01/14 10:27:30;;;;;;;15.85;5.90;;;;;;;;;;6252854;28;20048;-83
2024/01/14 10:30:38;;;;;;;19.02;7.85;;;;;;;;;;6232788;28;20488;-84
2024/01/14 10:33:40;;;;;;;19.75;8.00;;;;;;;;;;6232504;28;20136;-83
2024/01/14 10:36:42;;;;;;;17.02;6.35;;;;;;;;;;6229547;28;20065;-83
2024/01/14 10:39:44;;;;;;;14.35;7.03;;;;;;;;;;6246235;28;20064;-84
2024/01/14 10:42:46;;;;;;;16.17;6.60;;;;;;;;;;6252069;28;20045;-84
2024/01/14 10:45:48;;;;;;;19.23;6.88;;;;;;;;;;6239726;28;20052;-83
2024/01/14 10:49:06;;;;;;;18.25;7.65;;;;;;;;;;6257596;28;20129;-83
2024/01/14 10:52:11;;;;;;;19.65;7.22;;;;;;;;;;6245670;28;20055;-84
2024/01/14 10:55:32;;;;;;;20.40;6.93;;;;;;;;;;6246999;28;20045;-89
2024/01/14 10:58:36;;;;;;;15.90;6.32;;;;;;;;;;6265874;28;20376;-85
2024/01/14 11:01:53;;;;;;;16.70;7.75;;;;;;;;;;6255657;28;20056;-87
2024/01/14 11:04:55;;;;;;;18.23;7.18;;;;;;;;;;6250370;28;20048;-88
2024/01/14 11:07:57;;;;;;;13.00;6.07;;;;;;;;;;6229435;28;20045;-88
2024/01/14 11:11:01;;;;;;;15.27;5.88;;;;;;;;;;6258936;28;20085;-87
2024/01/14 11:14:10;;;;;;;;;;;;;;;;;;6244825;28;20045;-88
2024/01/14 11:17:21;;;;;;;13.80;5.88;;;;;;;;;;6261450;28;19928;-86
2024/01/14 11:20:31;;;;;;;12.20;5.47;;;;;;;;;;6260711;28;20124;-87
2024/01/14 11:23:52;;;;;;;13.50;6.65;;;;;;;;;;6260376;28;20170;-87
2024/01/14 11:26:56;;;;;;;17.67;6.68;;;;;;;;;;6255126;28;20069;-85
2024/01/14 11:29:58;;;;;;;13.88;5.80;;;;;;;;;;6264261;28;20064;-84
2024/01/14 11:33:26;;;;;;;13.90;6.03;;;;;;;;;;6264235;28;20053;-86
2024/01/14 11:36:53;;;;;;;13.32;6.60;;;;;;;;;;6248261;28;20104;-87
2024/01/14 11:40:18;;;;;;;11.57;5.10;;;;;;;;;;6245230;28;20041;-85
2024/01/14 11:43:19;;;;;;;14.25;4.80;;;;;;;;;;6250538;28;20049;-85
2024/01/14 11:46:41;;;;;;;12.55;5.75;;;;;;;;;;6241578;28;20049;-86
2024/01/14 11:49:51;;;;;;;14.10;5.32;;;;;;;;;;6236823;28;20982;-87
2024/01/14 11:53:01;;;;;;;12.27;5.97;;;;;;;;;;6180427;28;20041;-87
2024/01/14 11:56:03;;;;;;;17.38;8.27;;;;;;;;;;6217372;28;20048;-87
2024/01/14 11:59:08;;;;;;;12.00;5.03;;;;;;;;;;6242867;28;20139;-86
2024/01/14 12:02:17;;;;;;;16.13;7.97;;;;;;;;;;6252285;28;20044;-88
2024/01/14 12:05:21;;;;;;;11.07;4.93;;;;;;;;;;6236022;28;20045;-89
2024/01/14 12:08:23;;;;;;;15.15;4.72;;;;;;;;;;6252592;28;20055;-86
2024/01/14 12:11:25;;;;;;;15.57;4.97;;;;;;;;;;6268864;28;20052;-86
2024/01/14 12:14:27;;;;;;;13.70;5.40;;;;;;;;;;6249304;28;20045;-87
2024/01/14 12:17:31;;;;;;;14.23;6.45;;;;;;;;;;6247827;28;20114;-86
2024/01/14 12:20:33;;;;;;;10.60;5.38;;;;;;;;;;6261177;28;20422;-85
2024/01/14 12:23:37;;;;;;;13.05;5.25;;;;;;;;;;6233800;28;20049;-87
2024/01/14 12:26:38;;;;;;;10.13;5.32;;;;;;;;;;6239326;28;20121;-89
2024/01/14 12:29:41;;;;;;;16.65;5.65;;;;;;;;;;6255057;28;20091;-87
2024/01/14 12:32:43;;;;;;;10.97;5.20;;;;;;;;;;6232732;28;20065;-87
2024/01/14 12:35:48;;;;;;;11.48;5.70;;;;;;;;;;6233560;28;20045;-86
2024/01/14 12:38:50;;;;;;;10.20;4.50;;;;;;;;;;6234389;28;20045;-88
2024/01/14 12:41:55;;;;;;;11.95;4.90;;;;;;;;;;6243723;28;20519;-87
2024/01/14 12:45:00;;;;;;;15.15;6.30;;;;;;;;;;6224567;28;20098;-87
2024/01/14 12:48:03;;;;;;;14.48;6.20;;;;;;;;;;6221240;28;20041;-86
2024/01/14 12:51:06;;;;;;;9.55;4.53;;;;;;;;;;6236785;28;20120;-85
2024/01/14 12:54:08;;;;;;;12.32;5.60;;;;;;;;;;6219223;28;20045;-85
2024/01/14 12:57:26;;;;;;;16.13;6.55;;;;;;;;;;6247071;28;20049;-86
2024/01/14 13:00:29;;;;;;;14.43;5.97;;;;;;;;;;6245334;28;20045;-85
2024/01/14 13:03:38;;;;;;;14.68;6.15;;;;;;;;;;6238689;28;20191;-89
2024/01/14 13:06:40;;;;;;;16.27;6.38;;;;;;;;;;6250060;28;20101;-87
2024/01/14 13:09:47;;;;;;;15.43;6.28;;;;;;;;;;6245187;28;20035;-88
2024/01/14 13:12:49;;;;;;;12.27;5.67;;;;;;;;;;6242834;28;20047;-86
2024/01/14 13:15:52;;;;;;;13.13;5.50;;;;;;;;;;6243274;28;20041;-87
2024/01/14 13:18:54;;;;;;;13.77;6.50;;;;;;;;;;6236861;28;20562;-86
2024/01/14 13:21:56;;;;;;;19.20;7.10;;;;;;;;;;6236101;28;20049;-87
2024/01/14 13:24:58;;;;;;;13.77;6.10;;;;;;;;;;6238992;28;20049;-85
2024/01/14 13:28:00;;;;;;;16.05;6.07;;;;;;;;;;6242976;28;20143;-86
2024/01/14 13:31:02;;;;;;;14.32;6.13;;;;;;;;;;6225750;28;20041;-85
2024/01/14 13:34:04;;;;;;;22.38;8.80;;;;;;;;;;6249132;28;20072;-87
2024/01/14 13:37:08;;;;;;;16.52;5.72;;;;;;;;;;6220581;28;20090;-86
2024/01/14 13:40:10;;;;;;;18.70;7.90;;;;;;;;;;6233654;28;20524;-86
2024/01/14 13:43:13;;;;;;;16.08;5.90;;;;;;;;;;6239748;28;20082;-87
2024/01/14 13:46:15;;;;;;;15.98;7.18;;;;;;;;;;6221255;28;20041;-87
2024/01/14 13:49:18;;;;;;;15.57;7.53;;;;;;;;;;6245570;28;20078;-86
2024/01/14 13:52:21;;;;;;;12.45;5.85;;;;;;;;;;6249827;28;20077;-86
2024/01/14 13:55:24;;;;;;;13.07;5.63;;;;;;;;;;6229202;28;20072;-86
2024/01/14 13:58:25;;;;;;;9.98;5.05;;;;;;;;;;6243622;28;20047;-88
2024/01/14 14:01:28;;;;;;;11.50;4.95;;;;;;;;;;6268370;28;20049;-86
2024/01/14 14:04:33;;;;;;;14.52;6.45;;;;;;;;;;6240194;28;20132;-86
2024/01/14 14:07:37;;;;;;;21.20;8.07;;;;;;;;;;6232374;28;20839;-86
2024/01/14 14:10:40;;;;;;;24.63;10.88;;;;;;;;;;6242084;28;20041;-85
2024/01/14 14:13:55;;;;;;;18.67;7.07;;;;;;;;;;6255780;28;20049;-87
2024/01/14 14:16:57;;;;;;;14.05;6.10;;;;;;;;;;6233010;28;20044;-86
2024/01/14 14:20:00;;;;;;;12.07;5.32;;;;;;;;;;6224799;28;20065;-85
2024/01/14 14:23:02;;;;;;;13.27;5.53;;;;;;;;;;6226460;28;20056;-86
2024/01/14 14:26:04;;;;;;;14.00;5.80;;;;;;;;;;6249398;28;20037;-86
2024/01/14 14:29:06;;;;;;;15.05;5.95;;;;;;;;;;6237598;28;20060;-86
2024/01/14 14:32:08;;;;;;;13.10;5.75;;;;;;;;;;6246026;28;20150;-86
2024/01/14 14:35:13;;;;;;;14.10;5.65;;;;;;;;;;6245789;28;20053;-87
2024/01/14 14:38:15;;;;;;;10.07;5.22;;;;;;;;;;6233603;28;20599;-86
2024/01/14 14:41:17;;;;;;;11.50;5.85;;;;;;;;;;6227547;28;20050;-85
2024/01/14 14:44:31;;;;;;;13.20;5.53;;;;;;;;;;6233711;28;20076;-86
2024/01/14 14:47:34;;;;;;;12.13;5.80;;;;;;;;;;6240972;28;20047;-86
2024/01/14 14:50:36;;;;;;;16.15;6.15;;;;;;;;;;6227978;28;20063;-87
2024/01/14 14:53:38;;;;;;;13.68;7.47;;;;;;;;;;6237760;28;20049;-85
2024/01/14 14:56:40;;;;;;;14.10;6.07;;;;;;;;;;6235105;28;20061;-85
2024/01/14 14:59:42;;;;;;;13.95;6.88;;;;;;;;;;6243349;28;20045;-86
2024/01/14 15:02:44;;;;;;;14.00;6.95;;;;;;;;;;6230208;28;20052;-85
2024/01/14 15:05:46;;;;;;;10.93;5.05;;;;;;;;;;6246935;28;20047;-85
2024/01/14 15:08:48;;;;;;;11.07;5.95;;;;;;;;;;6246803;28;20037;-86
2024/01/14 15:11:52;;;;;;;11.05;5.53;;;;;;;;;;6244113;28;20053;-85
2024/01/14 15:14:55;;;;;;;13.10;5.47;;;;;;;;;;6223790;28;20049;-85
2024/01/14 15:17:56;;;;;;;12.70;7.07;;;;;;;;;;6245476;28;20137;-86
2024/01/14 15:20:58;;;;;;;13.95;7.00;;;;;;;;;;6217685;28;20184;-87
2024/01/14 15:24:04;;;;;;;13.82;5.50;;;;;;;;;;6236401;28;20404;-85
2024/01/14 15:27:09;;;;;;;11.10;5.65;;;;;;;;;;6237238;28;20049;-87
2024/01/14 15:30:11;;;;;;;11.73;5.50;;;;;;;;;;6228298;28;20044;-86
2024/01/14 15:33:13;;;;;;;10.48;5.28;;;;;;;;;;6232738;28;20067;-86
2024/01/14 15:36:15;;;;;;;11.25;5.40;;;;;;;;;;6243814;28;20219;-88
2024/01/14 15:39:17;;;;;;;13.32;5.57;;;;;;;;;;6219855;28;20187;-86
2024/01/14 15:42:19;;;;;;;11.93;5.78;;;;;;;;;;6228925;28;20068;-88
2024/01/14 15:45:21;;;;;;;13.13;5.28;;;;;;;;;;6219183;28;20045;-87
2024/01/14 15:48:23;;;;;;;13.52;6.05;;;;;;;;;;6230531;28;20268;-86
2024/01/14 15:51:25;;;;;;;16.63;7.70;;;;;;;;;;6236014;28;20056;-87
2024/01/14 15:54:27;;;;;;;13.55;5.90;;;;;;;;;;6256632;28;20416;-88
2024/01/14 15:57:29;;;;;;;13.70;5.70;;;;;;;;;;6267367;28;20076;-87
2024/01/14 16:00:31;;;;;;;14.48;6.20;;;;;;;;;;6245839;28;20056;-85
2024/01/14 16:03:35;;;;;;;19.20;7.82;;;;;;;;;;6253503;28;20064;-88
2024/01/14 16:06:37;;;;;;;11.73;5.43;;;;;;;;;;6248807;28;20044;-86
2024/01/14 16:09:39;;;;;;;14.82;6.30;;;;;;;;;;6232775;28;20053;-86
2024/01/14 16:12:41;;;;;;;13.13;5.47;;;;;;;;;;6265291;28;20048;-86
2024/01/14 16:15:48;;;;;;;15.20;5.10;;;;;;;;;;6221003;28;20159;-87
2024/01/14 16:18:50;;;;;;;12.00;4.90;;;;;;;;;;6208158;28;20071;-87
2024/01/14 16:21:52;;;;;;;16.67;6.20;;;;;;;;;;6239008;28;20045;-88
2024/01/14 16:24:54;;;;;;;15.85;6.35;;;;;;;;;;6246087;28;20071;-89
2024/01/14 16:27:58;;;;;;;16.63;7.70;;;;;;;;;;6221973;28;20129;-88
2024/01/14 16:31:01;;;;;;;29.65;12.90;;;;;;;;;;6240100;28;20136;-86
2024/01/14 16:34:14;;;;;;;14.70;6.68;;;;;;;;;;6243223;28;20056;-87
2024/01/14 16:37:16;;;;;;;18.35;7.63;;;;;;;;;;6241545;28;20045;-86
2024/01/14 16:40:18;;;;;;;12.93;5.20;;;;;;;;;;6233890;28;20094;-86
2024/01/14 16:43:20;;;;;;;17.33;6.30;;;;;;;;;;6215441;28;20385;-87
2024/01/14 16:46:24;;;;;;;17.95;7.10;;;;;;;;;;6223758;28;20772;-87
2024/01/14 16:49:28;;;;;;;18.55;7.40;;;;;;;;;;6237819;28;20053;-87
2024/01/14 16:52:31;;;;;;;18.60;7.20;;;;;;;;;;6245427;28;20065;-86
2024/01/14 16:55:33;;;;;;;19.08;7.20;;;;;;;;;;6235170;28;20463;-86
2024/01/14 16:58:35;;;;;;;18.48;7.32;;;;;;;;;;6237585;28;20041;-84
2024/01/14 17:01:37;;;;;;;21.80;7.72;;;;;;;;;;6230769;28;20049;-85
2024/01/14 17:04:39;;;;;;;17.40;6.55;;;;;;;;;;6234248;28;20045;-85
2024/01/14 17:07:45;;;;;;;18.02;6.88;;;;;;;;;;6237801;28;20051;-86
2024/01/14 17:10:47;;;;;;;19.42;7.88;;;;;;;;;;6257419;28;20042;-85
2024/01/14 17:14:04;;;;;;;21.23;7.85;;;;;;;;;;6243876;28;20461;-85
2024/01/14 17:17:06;;;;;;;16.42;7.25;;;;;;;;;;6252064;28;20048;-86
2024/01/14 17:20:11;;;;;;;15.32;6.63;;;;;;;;;;6255493;28;20048;-85
2024/01/14 17:23:12;;;;;;;17.70;6.72;;;;;;;;;;6272241;28;20475;-85
2024/01/14 17:26:18;;;;;;;19.73;7.85;;;;;;;;;;6253073;28;20055;-85
2024/01/14 17:29:20;;;;;;;17.33;7.45;;;;;;;;;;6230641;28;20045;-85
2024/01/14 17:32:23;;;;;;;16.60;7.93;;;;;;;;;;6257809;28;20053;-86
2024/01/14 17:35:28;;;;;;;19.75;8.25;;;;;;;;;;6233311;28;20080;-86
2024/01/14 17:38:32;;;;;;;19.10;6.13;;;;;;;;;;6251468;28;20049;-86
2024/01/14 17:41:35;;;;;;;20.05;7.13;;;;;;;;;;6259697;28;20507;-86
2024/01/14 17:44:42;;;;;;;19.13;7.32;;;;;;;;;;6249977;28;20392;-86
2024/01/14 17:47:47;;;;;;;17.92;7.97;;;;;;;;;;6239140;28;20060;-84
2024/01/14 17:50:50;;;;;;;;;;;;;;;;;;6232160;28;20171;-85
2024/01/14 17:53:52;;;;;;;19.45;7.38;;;;;;;;;;6232813;28;19928;-84
2024/01/14 17:56:55;;;;;;;18.98;7.47;;;;;;;;;;6255271;28;20044;-87
2024/01/14 17:59:56;;;;;;;21.10;8.70;;;;;;;;;;6255656;28;20427;-87
2024/01/14 18:02:58;;;;;;;22.27;7.63;;;;;;;;;;6262875;28;20044;-84